createdAt,value
2019-05-23T00:00:49.063Z,12.30
2019-05-23T00:03:41.150Z,13.68
2019-05-23T00:06:28.932Z,12.82
2019-05-23T00:09:17.544Z,14.28
2019-05-23T00:14:32.819Z,11.20
2019-05-23T00:17:02.341Z,14.40
2019-05-23T00:19:32.860Z,11.50
2019-05-23T00:24:31.985Z,11.12
2019-05-23T00:27:02.479Z,11.30
2019-05-23T00:29:33.391Z,10.40
2019-05-23T00:32:20.550Z,10.78
2019-05-23T00:34:52.012Z,11.18
2019-05-23T00:37:23.169Z,7.95
2019-05-23T00:39:53.593Z,9.85
2019-05-23T00:42:22.957Z,10.23
2019-05-23T00:44:52.486Z,9.60
2019-05-23T00:47:22.529Z,7.62
2019-05-23T00:49:52.854Z,9.38
2019-05-23T00:52:22.225Z,9.25
2019-05-23T00:54:51.668Z,10.80
2019-05-23T00:57:22.023Z,11.90
2019-05-23T00:59:51.975Z,11.00
2019-05-23T01:02:21.332Z,8.95
2019-05-23T01:04:50.979Z,8.58
2019-05-23T01:07:21.117Z,9.00
2019-05-23T01:09:52.047Z,9.78
2019-05-23T01:12:22.502Z,10.53
2019-05-23T01:14:53.629Z,13.35
2019-05-23T01:17:23.006Z,9.10
2019-05-23T01:19:54.011Z,7.75
2019-05-23T01:22:24.014Z,9.90
2019-05-23T01:24:55.086Z,9.25
2019-05-23T01:27:25.234Z,10.90
2019-05-23T01:29:54.611Z,21.00
2019-05-23T01:32:25.643Z,18.40
2019-05-23T01:34:55.746Z,10.32
2019-05-23T01:37:25.110Z,9.68
2019-05-23T01:39:54.975Z,12.70
2019-05-23T01:42:24.420Z,19.45
2019-05-23T01:44:54.733Z,19.40
2019-05-23T01:47:24.155Z,14.63
2019-05-23T01:49:54.825Z,13.90
2019-05-23T01:52:24.667Z,13.22
2019-05-23T01:54:54.314Z,12.98
2019-05-23T01:57:24.936Z,12.15
2019-05-23T02:00:08.897Z,17.87
2019-05-23T02:02:29.371Z,15.85
2019-05-23T02:04:59.507Z,15.25
2019-05-23T02:07:29.398Z,16.30
2019-05-23T02:09:58.786Z,12.00
2019-05-23T02:12:28.743Z,12.10
2019-05-23T02:14:59.701Z,14.68
2019-05-23T02:17:29.751Z,15.10
2019-05-23T02:19:59.588Z,15.13
2019-05-23T02:22:29.012Z,13.10
2019-05-23T02:24:59.746Z,12.30
2019-05-23T02:27:29.777Z,13.40
2019-05-23T02:30:00.655Z,13.70
2019-05-23T02:32:31.076Z,13.25
2019-05-23T02:35:00.581Z,11.53
2019-05-23T02:37:50.027Z,12.97
2019-05-23T02:40:35.833Z,13.32
2019-05-23T02:43:09.692Z,12.90
2019-05-23T02:45:43.815Z,14.85
2019-05-23T02:48:15.311Z,15.93
2019-05-23T02:50:49.875Z,13.93
2019-05-23T02:53:19.351Z,17.50
2019-05-23T02:55:49.808Z,17.25
2019-05-23T03:00:55.715Z,15.03
2019-05-23T03:03:28.252Z,16.12
2019-05-23T03:05:59.312Z,19.57
2019-05-23T03:08:31.501Z,13.93
2019-05-23T03:11:13.355Z,14.50
2019-05-23T03:13:42.742Z,17.35
2019-05-23T03:16:15.536Z,14.35
2019-05-23T03:18:49.017Z,19.05
2019-05-23T03:21:19.834Z,15.68
2019-05-23T03:24:09.413Z,15.65
2019-05-23T03:26:42.053Z,14.68
2019-05-23T03:29:11.798Z,14.03
2019-05-23T03:31:42.831Z,19.37
2019-05-23T03:34:12.351Z,13.15
2019-05-23T03:36:42.205Z,12.47
2019-05-23T03:39:11.870Z,15.08
2019-05-23T03:41:41.413Z,11.43
2019-05-23T03:44:12.428Z,17.23
2019-05-23T03:46:43.434Z,21.10
2019-05-23T03:49:14.466Z,17.42
2019-05-23T03:51:45.164Z,14.38
2019-05-23T03:54:15.199Z,15.43
2019-05-23T03:56:44.635Z,13.83
2019-05-23T03:59:14.662Z,17.00
2019-05-23T04:01:48.357Z,18.70
2019-05-23T04:04:16.293Z,15.90
2019-05-23T04:06:45.827Z,15.78
2019-05-23T04:09:16.366Z,15.75
2019-05-23T04:14:14.432Z,14.68
2019-05-23T04:16:43.879Z,18.57
2019-05-23T04:19:13.530Z,15.05
2019-05-23T04:21:42.967Z,14.17
2019-05-23T04:24:12.343Z,12.93
2019-05-23T04:26:41.796Z,13.38
2019-05-23T04:29:11.227Z,12.23
2019-05-23T04:31:40.714Z,11.97
2019-05-23T04:34:22.828Z,12.73
2019-05-23T04:36:52.254Z,14.25
2019-05-23T04:39:34.682Z,13.30
2019-05-23T04:42:05.703Z,18.50
2019-05-23T04:44:35.256Z,14.25
2019-05-23T04:47:05.983Z,11.67
2019-05-23T04:49:39.115Z,32.40
2019-05-23T04:52:08.957Z,23.55
2019-05-23T04:54:40.378Z,23.27
2019-05-23T04:57:10.649Z,17.82
2019-05-23T04:59:59.765Z,10.05
2019-05-23T05:02:29.207Z,10.40
2019-05-23T05:04:58.637Z,15.08
2019-05-23T05:07:28.397Z,11.85
2019-05-23T05:09:58.757Z,11.15
2019-05-23T05:12:28.413Z,10.82
2019-05-23T05:14:57.777Z,9.03
2019-05-23T05:17:27.397Z,11.30
2019-05-23T05:19:56.772Z,10.50
2019-05-23T05:22:26.431Z,12.33
2019-05-23T05:24:55.782Z,11.13
2019-05-23T05:27:26.721Z,9.88
2019-05-23T05:29:56.095Z,8.45
2019-05-23T05:32:43.223Z,10.23
2019-05-23T05:34:58.111Z,8.98
2019-05-23T05:37:27.559Z,11.73
2019-05-23T05:39:56.911Z,8.75
2019-05-23T05:42:27.058Z,10.85
2019-05-23T05:44:56.452Z,10.45
2019-05-23T05:47:26.477Z,14.53
2019-05-23T05:49:55.905Z,14.65
2019-05-23T05:52:27.254Z,15.43
2019-05-23T05:54:56.705Z,13.93
2019-05-23T05:57:26.070Z,17.17
2019-05-23T05:59:55.522Z,20.62
2019-05-23T06:02:26.364Z,18.10
2019-05-23T06:04:55.869Z,17.00
2019-05-23T06:07:36.357Z,19.10
2019-05-23T06:10:08.118Z,18.75
2019-05-23T06:12:37.984Z,16.90
2019-05-23T06:15:07.819Z,18.12
2019-05-23T06:17:37.262Z,20.82
2019-05-23T06:20:07.572Z,20.05
2019-05-23T06:22:37.374Z,15.08
2019-05-23T06:25:08.976Z,18.70
2019-05-23T06:27:38.505Z,16.90
2019-05-23T06:30:10.636Z,17.40
2019-05-23T06:32:40.185Z,19.73
2019-05-23T06:35:09.719Z,21.70
2019-05-23T06:37:39.875Z,19.45
2019-05-23T06:40:09.539Z,19.98
2019-05-23T06:42:38.930Z,14.80
2019-05-23T06:45:10.562Z,15.08
2019-05-23T06:47:39.991Z,15.13
2019-05-23T06:50:15.873Z,16.27
2019-05-23T06:52:45.352Z,14.73
2019-05-23T06:55:14.684Z,13.95
2019-05-23T06:57:44.085Z,14.03
2019-05-23T07:00:15.250Z,14.43
2019-05-23T07:02:45.226Z,15.90
2019-05-23T07:05:15.653Z,12.30
2019-05-23T07:10:13.633Z,12.73
2019-05-23T07:12:43.085Z,13.43
2019-05-23T07:15:12.624Z,15.03
2019-05-23T07:17:42.378Z,12.95
2019-05-23T07:20:12.306Z,15.78
2019-05-23T07:22:41.832Z,14.93
2019-05-23T07:25:11.771Z,15.98
2019-05-23T07:27:41.175Z,14.98
2019-05-23T07:30:26.115Z,13.15
2019-05-23T07:32:55.767Z,18.62
2019-05-23T07:35:26.274Z,15.20
2019-05-23T07:40:24.830Z,17.50
2019-05-23T07:42:54.851Z,15.10
2019-05-23T07:45:28.702Z,15.25
2019-05-23T07:47:58.100Z,17.70
2019-05-23T07:50:27.435Z,13.35
2019-05-23T07:52:57.563Z,16.17
2019-05-23T07:55:31.258Z,15.13
2019-05-23T07:58:00.785Z,14.13
2019-05-23T08:00:34.882Z,23.30
2019-05-23T08:03:04.937Z,13.25
2019-05-23T08:05:34.557Z,13.60
2019-05-23T08:08:04.804Z,14.10
2019-05-23T08:10:34.782Z,14.40
2019-05-23T08:13:04.455Z,43.13
2019-05-23T08:15:33.920Z,15.70
2019-05-23T08:18:03.978Z,19.95
2019-05-23T08:20:33.711Z,26.15
2019-05-23T08:23:03.105Z,18.12
2019-05-23T08:28:02.715Z,17.92
2019-05-23T08:30:32.228Z,18.42
2019-05-23T08:33:01.969Z,19.52
2019-05-23T08:35:31.330Z,17.90
2019-05-23T08:38:01.178Z,19.15
2019-05-23T08:40:30.810Z,18.52
2019-05-23T08:43:19.720Z,15.40
2019-05-23T08:45:49.233Z,17.25
2019-05-23T08:48:18.661Z,21.15
2019-05-23T08:50:51.238Z,19.30
2019-05-23T08:53:19.121Z,24.55
2019-05-23T08:55:48.751Z,24.98
2019-05-23T08:58:18.170Z,22.50
2019-05-23T09:00:48.533Z,26.82
2019-05-23T09:03:18.996Z,25.52
2019-05-23T09:05:49.860Z,25.17
2019-05-23T09:08:20.115Z,36.53
2019-05-23T09:10:51.317Z,30.95
2019-05-23T09:13:20.769Z,19.90
2019-05-23T09:15:52.760Z,28.07
2019-05-23T09:18:25.805Z,26.02
2019-05-23T09:20:55.190Z,23.85
2019-05-23T09:23:26.728Z,24.72
2019-05-23T09:25:56.162Z,26.42
2019-05-23T09:28:25.720Z,22.62
2019-05-23T09:30:55.085Z,26.23
2019-05-23T09:33:24.474Z,25.65
2019-05-23T09:35:53.831Z,21.82
2019-05-23T09:38:23.600Z,25.15
2019-05-23T09:40:52.984Z,25.10
2019-05-23T09:43:22.791Z,22.70
2019-05-23T09:45:53.796Z,25.43
2019-05-23T09:48:24.841Z,21.65
2019-05-23T09:50:54.276Z,23.42
2019-05-23T09:53:23.897Z,20.23
2019-05-23T09:55:55.797Z,22.90
2019-05-23T09:58:24.713Z,22.48
2019-05-23T10:00:54.170Z,23.05
2019-05-23T10:03:23.915Z,21.97
2019-05-23T10:05:53.271Z,22.00
2019-05-23T10:08:22.882Z,22.42
2019-05-23T10:10:52.444Z,24.32
2019-05-23T10:13:38.339Z,23.85
2019-05-23T10:15:56.759Z,20.92
2019-05-23T10:18:26.180Z,19.73
2019-05-23T10:20:55.591Z,27.82
2019-05-23T10:23:24.971Z,24.05
2019-05-23T10:25:54.329Z,21.10
2019-05-23T10:28:23.741Z,21.45
2019-05-23T10:30:53.121Z,19.17
2019-05-23T10:33:22.475Z,16.65
2019-05-23T10:36:00.383Z,20.15
2019-05-23T10:38:22.866Z,19.25
2019-05-23T10:40:52.584Z,17.52
2019-05-23T10:43:23.130Z,19.32
2019-05-23T10:48:22.646Z,18.85
2019-05-23T10:50:52.425Z,17.10
2019-05-23T10:53:21.821Z,22.52
2019-05-23T10:55:51.288Z,21.30
2019-05-23T10:58:21.829Z,18.55
2019-05-23T11:03:20.297Z,17.62
2019-05-23T11:05:50.031Z,17.92
2019-05-23T11:08:20.454Z,15.28
2019-05-23T11:10:49.917Z,15.58
2019-05-23T11:13:20.428Z,16.87
2019-05-23T11:15:49.879Z,15.40
2019-05-23T11:18:19.261Z,14.05
2019-05-23T11:20:48.625Z,15.72
2019-05-23T11:23:19.665Z,16.97
2019-05-23T11:25:49.311Z,17.90
2019-05-23T11:28:18.676Z,18.90
2019-05-23T11:30:52.446Z,15.03
2019-05-23T11:33:21.971Z,11.75
2019-05-23T11:35:51.400Z,15.83
2019-05-23T11:38:21.221Z,12.18
2019-05-23T11:40:50.873Z,11.40
2019-05-23T11:43:22.094Z,10.35
2019-05-23T11:45:55.832Z,16.75
2019-05-23T11:48:25.751Z,14.83
2019-05-23T11:50:55.227Z,12.30
2019-05-23T11:53:25.049Z,12.40
2019-05-23T11:56:13.932Z,12.05
2019-05-23T11:58:43.325Z,9.48
2019-05-23T12:01:20.669Z,12.70
2019-05-23T12:03:47.922Z,12.95
2019-05-23T12:06:17.909Z,11.73
2019-05-23T12:08:48.945Z,9.28
2019-05-23T12:11:18.664Z,10.60
2019-05-23T12:13:48.026Z,10.17
2019-05-23T12:16:17.576Z,13.08
2019-05-23T12:18:47.001Z,11.90
2019-05-23T12:21:16.745Z,8.88
2019-05-23T12:23:46.118Z,11.22
2019-05-23T12:26:15.480Z,9.13
2019-05-23T12:28:44.886Z,17.62
2019-05-23T12:31:14.742Z,11.22
2019-05-23T12:33:44.113Z,9.33
2019-05-23T12:36:14.561Z,11.08
2019-05-23T12:41:14.190Z,10.65
2019-05-23T12:43:43.569Z,13.53
2019-05-23T12:46:13.017Z,13.93
2019-05-23T12:48:44.080Z,14.83
2019-05-23T12:51:17.691Z,8.90
2019-05-23T12:53:47.225Z,8.18
2019-05-23T12:56:16.598Z,13.90
2019-05-23T12:58:47.689Z,9.93
2019-05-23T13:01:18.705Z,16.62
2019-05-23T13:03:48.059Z,9.93
2019-05-23T13:06:17.439Z,9.40
2019-05-23T13:08:46.883Z,9.08
2019-05-23T13:11:16.330Z,10.15
2019-05-23T13:13:45.780Z,13.25
2019-05-23T13:16:15.125Z,7.78
2019-05-23T13:18:44.771Z,9.50
2019-05-23T13:21:14.280Z,8.68
2019-05-23T13:23:43.878Z,8.28
2019-05-23T13:26:14.587Z,10.00
2019-05-23T13:28:43.962Z,8.40
2019-05-23T13:31:13.341Z,10.68
2019-05-23T13:33:42.790Z,11.08
2019-05-23T13:36:12.236Z,23.73
2019-05-23T13:38:41.629Z,13.90
2019-05-23T13:41:10.993Z,13.62
2019-05-23T13:43:40.449Z,10.43
2019-05-23T13:46:09.815Z,8.05
2019-05-23T13:48:39.280Z,8.23
2019-05-23T13:51:08.666Z,13.25
2019-05-23T13:53:38.006Z,14.28
2019-05-23T13:56:07.647Z,16.93
2019-05-23T13:58:38.086Z,8.75
2019-05-23T14:01:10.200Z,7.72
2019-05-23T14:03:39.697Z,14.50
2019-05-23T14:06:09.509Z,7.92
2019-05-23T14:08:38.898Z,11.75
2019-05-23T14:11:08.619Z,13.15
2019-05-23T14:13:38.059Z,13.08
2019-05-23T14:16:07.492Z,9.83
2019-05-23T14:18:37.813Z,14.25
2019-05-23T14:21:07.275Z,13.50
2019-05-23T14:23:36.830Z,10.03
2019-05-23T14:26:19.957Z,12.33
2019-05-23T14:28:51.498Z,18.20
2019-05-23T14:31:21.137Z,11.97
2019-05-23T14:33:52.249Z,10.55
2019-05-23T14:36:23.376Z,10.55
2019-05-23T14:38:54.464Z,15.70
2019-05-23T14:41:25.253Z,12.90
2019-05-23T14:44:05.388Z,9.33
2019-05-23T14:46:39.715Z,9.85
2019-05-23T14:49:23.692Z,8.40
2019-05-23T14:51:56.730Z,6.30
2019-05-23T14:54:39.678Z,8.90
2019-05-23T14:57:09.048Z,7.33
2019-05-23T14:59:38.873Z,12.45
2019-05-23T15:02:09.907Z,7.85
2019-05-23T15:04:39.318Z,6.55
2019-05-23T15:07:09.008Z,6.97
2019-05-23T15:09:38.438Z,5.67
2019-05-23T15:12:08.068Z,5.87
2019-05-23T15:14:38.118Z,5.62
2019-05-23T15:17:07.861Z,7.62
2019-05-23T15:19:42.180Z,8.63
2019-05-23T15:22:08.539Z,6.85
2019-05-23T15:24:38.300Z,8.25
2019-05-23T15:27:08.208Z,9.13
2019-05-23T15:29:50.155Z,7.00
2019-05-23T15:32:20.251Z,6.80
2019-05-23T15:34:51.731Z,7.30
2019-05-23T15:37:23.930Z,7.87
2019-05-23T15:39:53.897Z,9.68
2019-05-23T15:42:23.930Z,7.85
2019-05-23T15:44:54.054Z,12.82
2019-05-23T15:47:25.923Z,10.45
2019-05-23T15:49:58.118Z,10.35
2019-05-23T15:52:47.522Z,15.20
2019-05-23T15:58:30.118Z,9.33
2019-05-23T16:01:04.873Z,10.30
2019-05-23T16:03:43.230Z,10.45
2019-05-23T16:06:17.727Z,12.95
2019-05-23T16:08:47.716Z,8.13
2019-05-23T16:11:17.768Z,11.75
2019-05-23T16:13:48.286Z,10.38
2019-05-23T16:16:18.108Z,9.03
2019-05-23T16:18:48.687Z,9.28
2019-05-23T16:21:19.010Z,8.60
2019-05-23T16:23:49.569Z,8.23
2019-05-23T16:26:19.074Z,8.75
2019-05-23T16:28:48.429Z,8.38
2019-05-23T16:31:18.034Z,7.70
2019-05-23T16:36:17.639Z,7.95
2019-05-23T16:38:51.001Z,9.33
2019-05-23T16:41:22.188Z,7.67
2019-05-23T16:43:51.696Z,8.53
2019-05-23T16:46:21.815Z,8.23
2019-05-23T16:48:51.414Z,6.92
2019-05-23T16:51:21.251Z,8.43
2019-05-23T16:53:52.779Z,8.65
2019-05-23T16:56:33.383Z,7.95
2019-05-23T16:59:23.678Z,10.63
2019-05-23T17:02:05.548Z,7.22
2019-05-23T17:04:47.267Z,8.60
2019-05-23T17:07:30.574Z,11.80
2019-05-23T17:10:09.014Z,9.55
2019-05-23T17:12:43.788Z,8.80
2019-05-23T17:15:31.454Z,6.22
2019-05-23T17:18:15.416Z,7.85
2019-05-23T17:20:55.619Z,9.68
2019-05-23T17:23:29.632Z,7.95
2019-05-23T17:26:17.461Z,8.55
2019-05-23T17:28:48.632Z,10.50
2019-05-23T17:31:25.679Z,7.70
2019-05-23T17:33:55.076Z,14.25
2019-05-23T17:36:24.691Z,8.45
2019-05-23T17:39:08.256Z,11.70
2019-05-23T17:41:37.849Z,10.82
2019-05-23T17:44:07.556Z,7.70
2019-05-23T17:46:37.073Z,9.25
2019-05-23T17:49:06.427Z,11.33
2019-05-23T17:51:35.810Z,8.95
2019-05-23T17:54:05.391Z,8.93
2019-05-23T17:56:34.794Z,8.93
2019-05-23T17:59:04.256Z,9.33
2019-05-23T18:01:33.687Z,16.15
2019-05-23T18:04:03.741Z,14.33
2019-05-23T18:06:33.516Z,11.93
2019-05-23T18:09:05.907Z,9.08
2019-05-23T18:11:36.263Z,12.78
2019-05-23T18:14:13.436Z,11.38
2019-05-23T18:16:43.093Z,10.05
2019-05-23T18:19:12.475Z,12.63
2019-05-23T18:21:42.217Z,11.57
2019-05-23T18:24:11.898Z,7.75
2019-05-23T18:26:41.339Z,8.90
2019-05-23T18:29:11.608Z,11.20
2019-05-23T18:31:42.846Z,9.25
2019-05-23T18:34:24.698Z,7.35
2019-05-23T18:36:56.073Z,10.45
2019-05-23T18:39:27.402Z,6.78
2019-05-23T18:41:56.959Z,12.05
2019-05-23T18:44:26.920Z,8.87
2019-05-23T18:49:37.746Z,9.78
2019-05-23T18:52:10.381Z,10.00
2019-05-23T18:54:40.157Z,10.40
2019-05-23T18:57:09.580Z,7.80
2019-05-23T19:02:09.430Z,8.78
2019-05-23T19:04:38.802Z,7.27
2019-05-23T19:07:09.803Z,7.95
2019-05-23T19:09:39.971Z,7.62
2019-05-23T19:12:10.578Z,9.63
2019-05-23T19:14:39.957Z,12.93
2019-05-23T19:17:09.339Z,7.90
2019-05-23T19:19:38.924Z,10.48
2019-05-23T19:22:08.402Z,6.90
2019-05-23T19:24:38.112Z,11.77
2019-05-23T19:27:09.201Z,9.28
2019-05-23T19:29:40.498Z,10.48
2019-05-23T19:32:11.122Z,7.85
2019-05-23T19:37:13.347Z,8.83
2019-05-23T19:39:43.627Z,10.53
2019-05-23T19:42:15.034Z,8.93
2019-05-23T19:45:05.772Z,7.65
2019-05-23T19:47:39.683Z,13.48
2019-05-23T19:50:09.394Z,9.78
2019-05-23T19:52:38.850Z,10.95
2019-05-23T19:57:38.823Z,11.73
2019-05-23T20:00:09.890Z,10.20
2019-05-23T20:02:42.057Z,9.58
2019-05-23T20:05:19.465Z,11.50
2019-05-23T20:07:49.194Z,11.53
2019-05-23T20:10:19.222Z,11.87
2019-05-23T20:12:49.850Z,10.35
2019-05-23T20:17:51.852Z,14.33
2019-05-23T20:20:20.212Z,13.93
2019-05-23T20:22:49.628Z,10.93
2019-05-23T20:25:22.545Z,8.98
2019-05-23T20:27:51.931Z,13.98
2019-05-23T20:30:43.316Z,9.93
2019-05-23T20:33:12.676Z,14.30
2019-05-23T20:35:42.085Z,10.78
2019-05-23T20:38:11.462Z,12.43
2019-05-23T20:40:40.897Z,11.78
2019-05-23T20:43:10.366Z,10.03
2019-05-23T20:45:39.913Z,14.80
2019-05-23T20:48:09.270Z,11.90
2019-05-23T20:50:38.720Z,14.33
2019-05-23T20:53:08.097Z,12.05
2019-05-23T20:55:37.531Z,16.65
2019-05-23T20:58:06.976Z,14.35
2019-05-23T21:00:44.045Z,13.75
2019-05-23T21:03:13.544Z,14.30
2019-05-23T21:05:42.909Z,9.75
2019-05-23T21:08:12.291Z,15.30
2019-05-23T21:10:46.548Z,12.20
2019-05-23T21:13:15.920Z,9.35
2019-05-23T21:15:45.409Z,12.30
2019-05-23T21:18:14.757Z,11.33
2019-05-23T21:20:44.133Z,11.22
2019-05-23T21:23:13.591Z,11.50
2019-05-23T21:25:48.362Z,11.22
2019-05-23T21:28:18.277Z,11.00
2019-05-23T21:30:47.706Z,19.27
2019-05-23T21:33:17.089Z,13.53
2019-05-23T21:35:46.641Z,13.43
2019-05-23T21:38:16.026Z,12.17
2019-05-23T21:40:45.476Z,12.98
2019-05-23T21:43:14.870Z,9.98
2019-05-23T21:45:44.319Z,11.88
2019-05-23T21:48:13.728Z,12.98
2019-05-23T21:50:43.074Z,10.53
2019-05-23T21:53:12.466Z,10.38
2019-05-23T21:55:42.487Z,11.03
2019-05-23T21:58:13.126Z,10.45
2019-05-23T22:03:42.801Z,10.32
2019-05-23T22:06:13.893Z,12.47
2019-05-23T22:08:44.237Z,14.10
2019-05-23T22:11:13.604Z,9.93
2019-05-23T22:13:42.933Z,10.10
2019-05-23T22:16:12.822Z,12.63
2019-05-23T22:18:42.209Z,12.55
2019-05-23T22:21:12.131Z,10.50
2019-05-23T22:23:41.484Z,9.95
2019-05-23T22:26:10.884Z,13.08
2019-05-23T22:28:40.406Z,10.07
2019-05-23T22:31:10.755Z,9.48
2019-05-23T22:33:44.733Z,12.82
2019-05-23T22:36:33.615Z,12.07
2019-05-23T22:39:05.021Z,10.88
2019-05-23T22:41:53.819Z,12.33
2019-05-23T22:44:23.202Z,12.07
2019-05-23T22:46:52.719Z,10.28
2019-05-23T22:49:22.100Z,10.35
2019-05-23T22:51:51.533Z,13.28
2019-05-23T22:54:20.856Z,9.23
2019-05-23T22:56:50.293Z,11.38
2019-05-23T22:59:19.679Z,10.65
2019-05-23T23:01:49.110Z,14.90
2019-05-23T23:04:18.557Z,10.65
2019-05-23T23:06:48.004Z,11.53
2019-05-23T23:11:47.037Z,12.25
2019-05-23T23:14:16.586Z,12.63
2019-05-23T23:16:46.290Z,13.13
2019-05-23T23:19:15.719Z,11.40
2019-05-23T23:21:45.061Z,11.12
2019-05-23T23:24:14.449Z,11.75
2019-05-23T23:26:43.836Z,13.40
2019-05-23T23:29:13.460Z,15.55
2019-05-23T23:31:42.833Z,15.63
2019-05-23T23:36:41.975Z,16.15
2019-05-23T23:39:11.385Z,12.78
2019-05-23T23:41:40.766Z,16.62
2019-05-23T23:44:11.783Z,15.38
2019-05-23T23:46:59.028Z,14.00
2019-05-23T23:49:46.577Z,21.15
2019-05-23T23:52:34.008Z,17.27
2019-05-23T23:55:22.782Z,16.73
2019-05-23T23:58:00.747Z,15.45
